createdAt,value
2019-04-29T00:01:16.324Z,8.00
2019-04-29T00:03:45.445Z,7.92
2019-04-29T00:06:14.619Z,8.45
2019-04-29T00:08:43.745Z,6.92
2019-04-29T00:11:12.879Z,7.67
2019-04-29T00:13:42.055Z,7.12
2019-04-29T00:16:28.970Z,7.87
2019-04-29T00:19:02.559Z,9.48
2019-04-29T00:21:31.695Z,7.42
2019-04-29T00:24:03.887Z,6.97
2019-04-29T00:26:31.698Z,7.97
2019-04-29T00:29:00.868Z,6.42
2019-04-29T00:31:30.000Z,7.35
2019-04-29T00:33:59.130Z,7.55
2019-04-29T00:36:29.897Z,7.25
2019-04-29T00:39:12.703Z,7.55
2019-04-29T00:41:46.173Z,7.95
2019-04-29T00:44:16.876Z,8.85
2019-04-29T00:46:46.540Z,7.33
2019-04-29T00:49:15.672Z,7.08
2019-04-29T00:51:44.807Z,7.25
2019-04-29T00:54:15.577Z,9.50
2019-04-29T00:56:44.730Z,7.92
2019-04-29T00:59:13.860Z,7.35
2019-04-29T01:01:43.893Z,8.08
2019-04-29T01:04:13.030Z,8.15
2019-04-29T01:06:42.159Z,7.70
2019-04-29T01:09:12.974Z,7.90
2019-04-29T01:11:42.917Z,7.42
2019-04-29T01:14:12.059Z,6.87
2019-04-29T01:16:41.179Z,6.90
2019-04-29T01:19:10.311Z,7.40
2019-04-29T01:21:39.437Z,7.08
2019-04-29T01:26:52.267Z,7.42
2019-04-29T01:29:23.052Z,9.73
2019-04-29T01:31:52.297Z,6.28
2019-04-29T01:34:23.069Z,7.03
2019-04-29T01:36:52.247Z,6.80
2019-04-29T01:39:23.086Z,7.50
2019-04-29T01:42:02.500Z,7.45
2019-04-29T01:44:33.324Z,7.00
2019-04-29T01:47:02.479Z,6.87
2019-04-29T01:49:31.636Z,6.87
2019-04-29T01:52:00.815Z,7.20
2019-04-29T01:54:29.975Z,7.15
2019-04-29T01:56:59.215Z,7.47
2019-04-29T01:59:28.370Z,7.08
2019-04-29T02:01:57.488Z,7.85
2019-04-29T02:04:26.640Z,9.23
2019-04-29T02:06:55.793Z,8.28
2019-04-29T02:09:29.536Z,6.72
2019-04-29T02:11:58.757Z,7.72
2019-04-29T02:14:27.923Z,7.40
2019-04-29T02:16:57.115Z,10.28
2019-04-29T02:19:26.253Z,8.20
2019-04-29T02:22:09.256Z,10.03
2019-04-29T02:24:40.652Z,8.23
2019-04-29T02:27:09.795Z,7.40
2019-04-29T02:29:39.257Z,7.53
2019-04-29T02:32:08.413Z,7.45
2019-04-29T02:34:37.612Z,7.60
2019-04-29T02:37:08.407Z,8.28
2019-04-29T02:39:39.186Z,7.22
2019-04-29T02:42:26.075Z,7.75
2019-04-29T02:44:56.718Z,7.62
2019-04-29T02:47:25.869Z,8.35
2019-04-29T02:49:55.015Z,7.90
2019-04-29T02:52:24.192Z,7.45
2019-04-29T02:54:54.954Z,7.75
2019-04-29T02:57:28.452Z,6.97
2019-04-29T03:00:08.493Z,8.33
2019-04-29T03:02:41.806Z,7.67
2019-04-29T03:05:12.587Z,8.45
2019-04-29T03:07:42.100Z,7.45
2019-04-29T03:10:11.254Z,8.23
2019-04-29T03:12:40.780Z,7.75
2019-04-29T03:15:09.944Z,8.23
2019-04-29T03:17:39.125Z,8.48
2019-04-29T03:20:15.844Z,8.18
2019-04-29T03:22:46.687Z,8.20
2019-04-29T03:25:15.816Z,8.73
2019-04-29T03:27:44.971Z,8.55
2019-04-29T03:30:14.119Z,8.25
2019-04-29T03:32:43.255Z,8.68
2019-04-29T03:35:12.421Z,8.78
2019-04-29T03:37:41.558Z,7.37
2019-04-29T03:40:10.720Z,7.62
2019-04-29T03:42:39.860Z,8.03
2019-04-29T03:45:09.041Z,8.08
2019-04-29T03:47:38.181Z,8.70
2019-04-29T03:50:07.343Z,8.15
2019-04-29T03:52:36.537Z,9.15
2019-04-29T03:55:06.617Z,8.08
2019-04-29T03:57:37.449Z,9.15
2019-04-29T04:00:11.986Z,7.97
2019-04-29T04:02:45.726Z,7.85
2019-04-29T04:05:25.558Z,8.83
2019-04-29T04:07:56.466Z,8.30
2019-04-29T04:10:25.706Z,7.62
2019-04-29T04:12:54.846Z,8.33
2019-04-29T04:15:24.125Z,7.67
2019-04-29T04:18:11.404Z,8.35
2019-04-29T04:20:40.718Z,7.85
2019-04-29T04:23:10.334Z,8.63
2019-04-29T04:25:39.518Z,8.68
2019-04-29T04:28:08.690Z,9.05
2019-04-29T04:30:37.864Z,8.35
2019-04-29T04:33:06.997Z,8.98
2019-04-29T04:35:36.142Z,8.98
2019-04-29T04:38:05.318Z,8.30
2019-04-29T04:40:36.129Z,8.10
2019-04-29T04:43:05.259Z,9.03
2019-04-29T04:45:34.433Z,8.95
2019-04-29T04:48:03.590Z,8.85
2019-04-29T04:50:32.725Z,8.10
2019-04-29T04:53:01.892Z,8.18
2019-04-29T04:55:32.738Z,8.68
2019-04-29T04:58:01.919Z,9.35
2019-04-29T05:00:32.717Z,8.08
2019-04-29T05:03:01.882Z,8.43
2019-04-29T05:05:31.562Z,8.18
2019-04-29T05:08:00.742Z,9.18
2019-04-29T05:10:30.058Z,8.63
2019-04-29T05:12:59.197Z,9.50
2019-04-29T05:15:28.366Z,8.78
2019-04-29T05:17:57.715Z,9.85
2019-04-29T05:20:26.953Z,9.50
2019-04-29T05:22:59.075Z,10.18
2019-04-29T05:25:31.238Z,8.95
2019-04-29T05:28:00.904Z,8.80
2019-04-29T05:30:30.129Z,8.98
2019-04-29T05:32:59.296Z,8.38
2019-04-29T05:35:48.424Z,8.60
2019-04-29T05:38:25.256Z,8.93
2019-04-29T05:40:56.817Z,9.15
2019-04-29T05:43:33.716Z,9.23
2019-04-29T05:46:08.261Z,9.25
2019-04-29T05:48:37.411Z,9.15
2019-04-29T05:51:17.190Z,10.05
2019-04-29T05:53:54.742Z,9.28
2019-04-29T05:56:18.853Z,8.48
2019-04-29T05:58:48.061Z,8.93
2019-04-29T06:01:18.865Z,9.90
2019-04-29T06:03:48.003Z,8.58
2019-04-29T06:06:17.218Z,8.45
2019-04-29T06:08:46.347Z,10.95
2019-04-29T06:11:15.517Z,16.90
2019-04-29T06:13:44.711Z,20.02
2019-04-29T06:16:15.961Z,14.53
2019-04-29T06:18:44.723Z,14.43
2019-04-29T06:21:13.908Z,22.00
2019-04-29T06:23:43.083Z,20.05
2019-04-29T06:26:12.261Z,25.00
2019-04-29T06:28:41.411Z,17.42
2019-04-29T06:31:10.590Z,19.45
2019-04-29T06:33:39.758Z,23.65
2019-04-29T06:36:08.978Z,19.30
2019-04-29T06:38:38.126Z,17.65
2019-04-29T06:41:09.747Z,17.48
2019-04-29T06:43:38.182Z,18.12
2019-04-29T06:46:07.335Z,17.12
2019-04-29T06:48:37.382Z,21.27
2019-04-29T06:51:06.563Z,26.60
2019-04-29T06:53:35.713Z,24.12
2019-04-29T06:56:04.891Z,26.07
2019-04-29T06:58:36.616Z,29.40
2019-04-29T07:01:04.903Z,53.75
2019-04-29T07:03:34.315Z,34.92
2019-04-29T07:06:03.483Z,33.67
2019-04-29T07:08:32.631Z,32.17
2019-04-29T07:11:03.034Z,31.87
2019-04-29T07:13:32.440Z,31.60
2019-04-29T07:16:01.626Z,30.08
2019-04-29T07:18:30.790Z,29.10
2019-04-29T07:20:59.934Z,29.95
2019-04-29T07:23:29.292Z,34.25
2019-04-29T07:25:58.467Z,34.25
2019-04-29T07:28:27.611Z,32.25
2019-04-29T07:31:01.751Z,29.18
2019-04-29T07:33:27.745Z,26.15
2019-04-29T07:36:10.068Z,28.30
2019-04-29T07:38:40.740Z,29.95
2019-04-29T07:40:58.678Z,29.90
2019-04-29T07:43:27.904Z,30.37
2019-04-29T07:46:05.535Z,31.70
2019-04-29T07:48:36.824Z,31.52
2019-04-29T07:51:06.035Z,33.63
2019-04-29T07:53:44.793Z,32.67
2019-04-29T07:56:07.914Z,32.83
2019-04-29T07:58:37.312Z,38.45
2019-04-29T08:01:06.949Z,31.73
2019-04-29T08:03:36.294Z,33.33
2019-04-29T08:06:05.451Z,25.90
2019-04-29T08:08:34.587Z,28.92
2019-04-29T08:11:03.768Z,27.73
2019-04-29T08:13:33.215Z,28.00
2019-04-29T08:16:02.385Z,27.17
2019-04-29T08:18:31.527Z,27.98
2019-04-29T08:21:20.177Z,26.37
2019-04-29T08:23:49.340Z,28.40
2019-04-29T08:26:18.694Z,28.07
2019-04-29T08:28:47.860Z,27.85
2019-04-29T08:31:21.114Z,28.62
2019-04-29T08:33:48.533Z,26.65
2019-04-29T08:36:18.055Z,29.05
2019-04-29T08:38:47.233Z,35.28
2019-04-29T08:41:16.399Z,31.75
2019-04-29T08:43:52.434Z,33.92
2019-04-29T08:46:22.631Z,31.33
2019-04-29T08:48:51.801Z,28.87
2019-04-29T08:51:20.967Z,32.23
2019-04-29T08:53:50.133Z,34.73
2019-04-29T08:56:19.811Z,34.30
2019-04-29T08:58:50.820Z,29.98
2019-04-29T09:01:19.827Z,35.88
2019-04-29T09:03:49.118Z,31.90
2019-04-29T09:06:18.345Z,31.15
2019-04-29T09:08:55.472Z,32.10
2019-04-29T09:11:18.401Z,32.20
2019-04-29T09:13:47.542Z,36.33
2019-04-29T09:16:16.727Z,32.00
2019-04-29T09:18:45.877Z,34.55
2019-04-29T09:21:15.127Z,34.23
2019-04-29T09:23:44.274Z,30.70
2019-04-29T09:26:18.210Z,31.68
2019-04-29T09:28:49.805Z,31.35
2019-04-29T09:31:18.936Z,30.37
2019-04-29T09:33:48.979Z,28.55
2019-04-29T09:36:18.983Z,31.15
2019-04-29T09:38:48.141Z,31.07
2019-04-29T09:41:35.092Z,31.70
2019-04-29T09:44:12.074Z,24.23
2019-04-29T09:46:41.244Z,25.10
2019-04-29T09:49:10.424Z,29.52
2019-04-29T09:51:39.593Z,28.07
2019-04-29T09:54:09.550Z,26.23
2019-04-29T09:56:39.829Z,29.02
2019-04-29T09:59:26.784Z,25.52
2019-04-29T10:01:57.564Z,30.60
2019-04-29T10:04:56.489Z,37.45
2019-04-29T10:07:17.472Z,30.27
2019-04-29T10:09:56.895Z,32.83
2019-04-29T10:12:17.597Z,35.20
2019-04-29T10:14:46.751Z,35.35
2019-04-29T10:17:35.782Z,29.30
2019-04-29T10:20:18.068Z,30.02
2019-04-29T10:22:50.265Z,29.00
2019-04-29T10:25:18.605Z,29.42
2019-04-29T10:27:47.751Z,34.00
2019-04-29T10:30:20.300Z,29.25
2019-04-29T10:32:49.457Z,28.20
2019-04-29T10:35:18.602Z,30.08
2019-04-29T10:37:47.747Z,28.20
2019-04-29T10:40:24.625Z,29.35
2019-04-29T10:42:56.485Z,27.98
2019-04-29T10:45:30.078Z,29.75
2019-04-29T10:48:07.064Z,32.45
2019-04-29T10:50:37.900Z,28.02
2019-04-29T10:53:10.916Z,25.50
2019-04-29T10:55:39.108Z,27.02
2019-04-29T10:58:08.449Z,28.07
2019-04-29T11:00:57.357Z,29.60
2019-04-29T11:03:27.276Z,29.70
2019-04-29T11:06:01.850Z,28.75
2019-04-29T11:08:43.141Z,27.60
2019-04-29T11:11:22.566Z,35.45
2019-04-29T11:13:47.043Z,29.77
2019-04-29T11:16:14.952Z,30.60
2019-04-29T11:18:44.104Z,29.57
2019-04-29T11:21:13.278Z,30.95
2019-04-29T11:23:44.130Z,33.88
2019-04-29T11:26:17.733Z,32.42
2019-04-29T11:28:51.294Z,29.57
2019-04-29T11:31:19.303Z,32.48
2019-04-29T11:33:53.367Z,33.92
2019-04-29T11:36:26.846Z,29.98
2019-04-29T11:38:56.505Z,28.95
2019-04-29T11:41:27.323Z,29.72
2019-04-29T11:43:56.521Z,30.23
2019-04-29T11:46:25.920Z,29.27
2019-04-29T11:48:56.714Z,31.33
2019-04-29T11:51:27.513Z,30.23
2019-04-29T11:53:56.721Z,28.15
2019-04-29T11:56:25.864Z,26.70
2019-04-29T11:59:02.489Z,30.10
2019-04-29T12:01:42.933Z,27.13
2019-04-29T12:06:40.898Z,25.57
2019-04-29T12:09:10.037Z,25.75
2019-04-29T12:11:39.594Z,33.38
2019-04-29T12:14:10.403Z,39.23
2019-04-29T12:19:30.786Z,29.42
2019-04-29T12:22:04.544Z,27.58
2019-04-29T12:24:31.615Z,28.40
2019-04-29T12:27:00.797Z,32.15
2019-04-29T12:29:30.103Z,30.05
2019-04-29T12:32:03.642Z,28.83
2019-04-29T12:34:49.671Z,28.42
2019-04-29T12:37:25.603Z,24.80
2019-04-29T12:40:01.793Z,27.80
2019-04-29T12:42:45.031Z,27.77
2019-04-29T12:45:24.733Z,28.20
2019-04-29T12:47:54.520Z,24.92
2019-04-29T12:50:23.702Z,24.20
2019-04-29T12:52:52.929Z,25.23
2019-04-29T12:55:43.449Z,24.20
2019-04-29T12:57:57.146Z,22.80
2019-04-29T13:00:30.539Z,26.80
2019-04-29T13:03:01.899Z,24.85
2019-04-29T13:05:58.032Z,25.00
2019-04-29T13:08:24.097Z,23.18
2019-04-29T13:10:54.900Z,23.60
2019-04-29T13:13:24.042Z,26.10
2019-04-29T13:16:03.808Z,26.40
2019-04-29T13:18:43.488Z,23.38
2019-04-29T13:21:12.838Z,21.23
2019-04-29T13:23:55.561Z,24.82
2019-04-29T13:26:12.846Z,23.67
2019-04-29T13:28:59.148Z,23.92
2019-04-29T13:31:13.439Z,26.90
2019-04-29T13:33:45.943Z,21.90
2019-04-29T13:36:13.969Z,21.75
2019-04-29T13:38:43.137Z,22.10
2019-04-29T13:41:14.114Z,23.05
2019-04-29T13:43:43.286Z,24.55
2019-04-29T13:46:16.820Z,22.87
2019-04-29T13:48:56.976Z,26.73
2019-04-29T13:51:35.294Z,23.90
2019-04-29T13:53:55.383Z,21.85
2019-04-29T13:56:35.243Z,26.60
2019-04-29T13:58:59.720Z,23.18
2019-04-29T14:01:33.139Z,23.85
2019-04-29T14:04:07.501Z,23.45
2019-04-29T14:06:38.325Z,20.35
2019-04-29T14:09:09.137Z,21.42
2019-04-29T14:11:38.477Z,23.25
2019-04-29T14:14:07.613Z,20.37
2019-04-29T14:16:36.934Z,25.72
2019-04-29T14:19:08.626Z,20.85
2019-04-29T14:21:37.021Z,22.07
2019-04-29T14:24:06.186Z,24.25
2019-04-29T14:26:36.928Z,31.60
2019-04-29T14:29:06.285Z,27.22
2019-04-29T14:31:35.521Z,28.12
2019-04-29T14:34:20.386Z,30.25
2019-04-29T14:36:49.230Z,22.15
2019-04-29T14:39:35.804Z,21.23
2019-04-29T14:41:55.333Z,21.77
2019-04-29T14:44:39.747Z,23.60
2019-04-29T14:47:10.564Z,19.23
2019-04-29T14:49:41.439Z,16.05
2019-04-29T14:52:13.347Z,21.50
2019-04-29T14:54:43.211Z,18.98
2019-04-29T14:57:12.403Z,20.02
2019-04-29T14:59:41.800Z,16.52
2019-04-29T15:02:17.274Z,15.83
2019-04-29T15:04:44.811Z,18.73
2019-04-29T15:07:14.069Z,17.92
2019-04-29T15:09:56.306Z,17.90
2019-04-29T15:12:31.648Z,16.80
2019-04-29T15:15:08.159Z,18.80
2019-04-29T15:17:40.328Z,18.70
2019-04-29T15:20:14.207Z,17.30
2019-04-29T15:22:43.385Z,16.77
2019-04-29T15:25:12.533Z,19.05
2019-04-29T15:27:41.684Z,16.70
2019-04-29T15:30:10.927Z,17.75
2019-04-29T15:32:40.677Z,18.48
2019-04-29T15:35:09.835Z,14.63
2019-04-29T15:37:39.034Z,15.58
2019-04-29T15:40:09.537Z,15.48
2019-04-29T15:42:43.239Z,17.35
2019-04-29T15:45:09.746Z,15.72
2019-04-29T15:47:41.577Z,21.60
2019-04-29T15:50:18.744Z,19.80
2019-04-29T15:52:40.625Z,20.45
2019-04-29T15:55:09.802Z,20.20
2019-04-29T15:57:39.224Z,15.20
2019-04-29T16:00:21.634Z,16.80
2019-04-29T16:02:42.914Z,16.37
2019-04-29T16:05:15.399Z,15.23
2019-04-29T16:07:55.801Z,23.20
2019-04-29T16:10:40.632Z,17.32
2019-04-29T16:13:11.424Z,19.00
2019-04-29T16:15:40.613Z,22.00
2019-04-29T16:18:10.606Z,18.80
2019-04-29T16:20:40.689Z,23.12
2019-04-29T16:23:09.861Z,24.55
2019-04-29T16:25:40.715Z,19.15
2019-04-29T16:28:09.941Z,20.10
2019-04-29T16:30:39.173Z,25.43
2019-04-29T16:33:14.084Z,20.15
2019-04-29T16:35:39.320Z,19.57
2019-04-29T16:38:11.326Z,20.10
2019-04-29T16:40:41.405Z,23.92
2019-04-29T16:43:14.989Z,21.73
2019-04-29T16:45:52.858Z,22.87
2019-04-29T16:48:22.152Z,20.08
2019-04-29T16:50:51.330Z,19.57
2019-04-29T16:53:20.487Z,18.80
2019-04-29T16:55:49.673Z,22.73
2019-04-29T16:58:18.867Z,18.65
2019-04-29T17:00:52.814Z,18.80
2019-04-29T17:03:19.357Z,17.35
2019-04-29T17:05:48.696Z,19.52
2019-04-29T17:08:19.638Z,21.75
2019-04-29T17:11:12.041Z,19.50
2019-04-29T17:13:39.545Z,22.25
2019-04-29T17:16:10.398Z,19.77
2019-04-29T17:18:39.556Z,18.77
2019-04-29T17:21:08.723Z,20.85
2019-04-29T17:23:37.912Z,22.25
2019-04-29T17:26:07.079Z,21.50
2019-04-29T17:28:37.924Z,22.05
2019-04-29T17:31:12.477Z,23.57
2019-04-29T17:33:49.874Z,20.60
2019-04-29T17:36:23.551Z,23.52
2019-04-29T17:38:49.134Z,24.77
2019-04-29T17:41:18.680Z,23.22
2019-04-29T17:44:05.634Z,24.57
2019-04-29T17:46:39.412Z,20.65
2019-04-29T17:49:10.195Z,24.10
2019-04-29T17:51:39.374Z,24.80
2019-04-29T17:54:10.429Z,25.97
2019-04-29T17:56:45.083Z,24.30
2019-04-29T17:59:29.434Z,27.48
2019-04-29T18:02:18.351Z,24.23
2019-04-29T18:04:49.626Z,23.73
2019-04-29T18:07:18.543Z,28.35
2019-04-29T18:09:58.149Z,20.95
2019-04-29T18:12:27.326Z,22.58
2019-04-29T18:14:56.502Z,23.02
2019-04-29T18:17:31.228Z,25.82
2019-04-29T18:20:15.885Z,23.38
2019-04-29T18:22:50.423Z,24.02
2019-04-29T18:25:30.434Z,25.62
2019-04-29T18:27:53.205Z,21.12
2019-04-29T18:30:35.503Z,25.90
2019-04-29T18:32:55.658Z,22.35
2019-04-29T18:35:25.572Z,26.97
2019-04-29T18:37:55.711Z,26.68
2019-04-29T18:40:25.847Z,23.83
2019-04-29T18:42:55.468Z,22.52
2019-04-29T18:45:25.368Z,25.02
2019-04-29T18:47:55.656Z,22.80
2019-04-29T18:50:24.879Z,26.65
2019-04-29T18:52:54.053Z,28.27
2019-04-29T18:55:23.234Z,22.75
2019-04-29T18:57:54.549Z,23.85
2019-04-29T19:00:25.222Z,24.20
2019-04-29T19:02:58.426Z,27.75
2019-04-29T19:05:41.976Z,22.98
2019-04-29T19:08:14.626Z,23.40
2019-04-29T19:10:42.169Z,25.43
2019-04-29T19:13:13.126Z,25.85
2019-04-29T19:15:45.039Z,25.62
2019-04-29T19:18:17.412Z,26.17
2019-04-29T19:20:47.838Z,28.27
2019-04-29T19:23:16.122Z,24.18
2019-04-29T19:25:49.603Z,26.65
2019-04-29T19:28:25.251Z,24.72
2019-04-29T19:30:47.735Z,25.88
2019-04-29T19:33:16.881Z,23.70
2019-04-29T19:35:46.035Z,24.50
2019-04-29T19:38:15.770Z,27.00
2019-04-29T19:40:45.275Z,28.40
2019-04-29T19:43:17.726Z,29.75
2019-04-29T19:45:48.993Z,78.85
2019-04-29T19:48:16.419Z,27.67
2019-04-29T19:50:50.147Z,26.80
2019-04-29T19:53:16.803Z,26.77
2019-04-29T19:55:46.062Z,27.52
2019-04-29T19:58:15.875Z,24.77
2019-04-29T20:00:47.414Z,31.45
2019-04-29T20:03:23.582Z,29.02
2019-04-29T20:05:49.964Z,32.67
2019-04-29T20:08:40.955Z,27.07
2019-04-29T20:10:52.190Z,29.55
2019-04-29T20:13:30.298Z,29.75
2019-04-29T20:16:10.996Z,32.03
2019-04-29T20:19:01.410Z,30.05
2019-04-29T20:21:29.570Z,29.70
2019-04-29T20:23:59.104Z,30.30
2019-04-29T20:26:29.989Z,28.07
2019-04-29T20:28:59.709Z,30.10
2019-04-29T20:31:29.194Z,29.63
2019-04-29T20:34:01.265Z,30.75
2019-04-29T20:36:40.838Z,29.77
2019-04-29T20:39:00.333Z,31.60
2019-04-29T20:41:40.257Z,32.75
2019-04-29T20:44:05.136Z,34.13
2019-04-29T20:46:43.213Z,29.37
2019-04-29T20:49:02.908Z,29.23
2019-04-29T20:51:48.767Z,29.07
2019-04-29T20:54:09.012Z,30.08
2019-04-29T20:56:38.882Z,29.82
2019-04-29T20:59:12.455Z,31.50
2019-04-29T21:01:43.183Z,36.08
2019-04-29T21:04:11.703Z,29.85
2019-04-29T21:06:57.165Z,27.17
2019-04-29T21:09:11.965Z,30.92
2019-04-29T21:11:51.604Z,30.00
2019-04-29T21:14:33.890Z,28.20
2019-04-29T21:17:02.182Z,31.30
2019-04-29T21:19:31.507Z,31.20
2019-04-29T21:22:00.670Z,31.25
2019-04-29T21:24:29.847Z,30.37
2019-04-29T21:26:59.026Z,32.38
2019-04-29T21:29:28.446Z,26.80
2019-04-29T21:32:01.548Z,27.75
2019-04-29T21:34:37.008Z,28.67
2019-04-29T21:37:19.026Z,31.48
2019-04-29T21:40:01.687Z,28.57
2019-04-29T21:42:36.951Z,29.72
2019-04-29T21:45:09.100Z,30.62
2019-04-29T21:47:44.785Z,29.55
2019-04-29T21:50:09.136Z,31.93
2019-04-29T21:52:38.924Z,28.35
2019-04-29T21:55:08.103Z,31.45
2019-04-29T21:57:37.248Z,29.02
2019-04-29T22:00:09.814Z,27.30
2019-04-29T22:02:41.438Z,27.20
2019-04-29T22:05:14.875Z,29.15
2019-04-29T22:07:46.287Z,29.85
2019-04-29T22:10:11.967Z,31.17
2019-04-29T22:12:41.140Z,37.15
2019-04-29T22:15:10.291Z,35.98
2019-04-29T22:17:39.509Z,37.85
2019-04-29T22:20:10.336Z,34.63
2019-04-29T22:22:39.475Z,33.98
2019-04-29T22:25:10.040Z,32.73
2019-04-29T22:27:41.193Z,33.33
2019-04-29T22:30:16.881Z,39.08
2019-04-29T22:32:41.894Z,35.88
2019-04-29T22:35:11.047Z,36.33
2019-04-29T22:37:40.207Z,35.40
2019-04-29T22:40:09.617Z,37.48
2019-04-29T22:42:40.435Z,36.08
2019-04-29T22:45:10.117Z,32.58
2019-04-29T22:47:39.267Z,35.28
2019-04-29T22:50:08.609Z,33.48
2019-04-29T22:52:37.791Z,32.03
2019-04-29T22:55:07.931Z,34.23
2019-04-29T22:57:37.083Z,36.77
2019-04-29T23:00:08.571Z,36.17
2019-04-29T23:02:37.733Z,36.73
2019-04-29T23:05:06.899Z,34.88
2019-04-29T23:07:37.700Z,37.70
2019-04-29T23:10:07.518Z,34.20
2019-04-29T23:12:36.661Z,37.60
2019-04-29T23:15:06.973Z,36.33
2019-04-29T23:17:36.153Z,39.67
2019-04-29T23:20:29.015Z,40.35
2019-04-29T23:23:11.890Z,38.42
2019-04-29T23:25:51.744Z,40.25
2019-04-29T23:28:22.433Z,41.23
2019-04-29T23:30:52.243Z,35.90
2019-04-29T23:33:24.079Z,33.88
2019-04-29T23:35:53.576Z,35.05
2019-04-29T23:38:22.722Z,39.80
2019-04-29T23:40:54.658Z,36.38
2019-04-29T23:43:25.342Z,35.68
2019-04-29T23:45:56.978Z,34.90
2019-04-29T23:48:29.066Z,33.90
2019-04-29T23:50:58.091Z,36.42
2019-04-29T23:53:26.653Z,37.53
2019-04-29T23:56:00.322Z,38.67
2019-04-29T23:58:32.571Z,34.90
